createdAt,value
2022-12-09T00:02:21.431Z,2.30
2022-12-09T00:07:24.441Z,2.30
2022-12-09T00:12:29.505Z,2.00
2022-12-09T00:17:33.816Z,1.90
2022-12-09T00:22:36.940Z,1.70
2022-12-09T00:27:39.979Z,2.00
2022-12-09T00:32:44.456Z,1.90
2022-12-09T00:37:47.855Z,1.70
2022-12-09T00:42:52.159Z,1.20
2022-12-09T00:47:56.604Z,1.50
2022-12-09T00:53:05.534Z,1.70
2022-12-09T00:58:09.185Z,1.70
2022-12-09T01:03:15.334Z,1.90
2022-12-09T01:08:19.323Z,1.90
2022-12-09T01:13:22.357Z,1.50
2022-12-09T01:18:26.870Z,1.30
2022-12-09T01:23:30.885Z,1.50
2022-12-09T01:28:35.919Z,1.30
2022-12-09T01:33:40.933Z,1.20
2022-12-09T01:38:44.310Z,1.40
2022-12-09T01:44:07.690Z,1.50
2022-12-09T01:49:16.050Z,1.50
2022-12-09T01:54:19.840Z,1.40
2022-12-09T01:59:24.749Z,1.50
2022-12-09T02:04:30.727Z,1.70
2022-12-09T02:09:34.001Z,1.80
2022-12-09T02:14:42.609Z,1.70
2022-12-09T02:20:01.725Z,1.70
2022-12-09T02:25:15.076Z,1.60
2022-12-09T02:30:21.278Z,1.50
2022-12-09T02:35:31.476Z,1.40
2022-12-09T02:40:41.075Z,1.40
2022-12-09T02:45:45.908Z,1.60
2022-12-09T02:50:51.350Z,1.40
2022-12-09T02:55:57.086Z,1.10
2022-12-09T03:01:01.653Z,1.10
2022-12-09T03:06:10.285Z,1.20
2022-12-09T03:11:17.289Z,1.20
2022-12-09T03:16:26.897Z,1.10
2022-12-09T03:21:33.964Z,1.20
2022-12-09T03:26:39.640Z,1.20
2022-12-09T03:31:43.656Z,0.70
2022-12-09T03:36:51.374Z,0.80
2022-12-09T03:41:58.399Z,1.00
2022-12-09T03:47:01.815Z,1.10
2022-12-09T03:52:12.365Z,1.00
2022-12-09T03:57:19.202Z,1.00
2022-12-09T04:02:23.616Z,0.90
2022-12-09T04:07:28.106Z,0.70
2022-12-09T04:12:31.095Z,0.80
2022-12-09T04:17:34.094Z,0.90
2022-12-09T04:22:38.396Z,0.80
2022-12-09T04:27:41.681Z,0.90
2022-12-09T04:32:45.133Z,1.00
2022-12-09T04:37:49.826Z,1.00
2022-12-09T04:42:52.808Z,1.00
2022-12-09T04:47:55.837Z,1.10
2022-12-09T04:53:00.509Z,1.10
2022-12-09T04:58:03.896Z,0.70
2022-12-09T05:03:07.275Z,0.50
2022-12-09T05:08:29.839Z,0.80
2022-12-09T05:13:34.803Z,0.80
2022-12-09T05:18:38.227Z,0.80
2022-12-09T05:23:43.184Z,0.60
2022-12-09T05:28:47.467Z,0.20
2022-12-09T05:33:52.476Z,0.10
2022-12-09T05:38:57.401Z,0.10
2022-12-09T05:44:01.090Z,0.20
2022-12-09T05:49:05.729Z,0.50
2022-12-09T05:54:11.159Z,0.60
2022-12-09T05:59:14.464Z,0.60
2022-12-09T06:04:17.960Z,0.60
2022-12-09T06:09:22.673Z,0.40
2022-12-09T06:14:25.854Z,0.40
2022-12-09T06:19:29.092Z,0.70
2022-12-09T06:24:34.046Z,0.60
2022-12-09T06:29:37.211Z,0.60
2022-12-09T06:34:40.241Z,0.30
2022-12-09T06:39:45.016Z,0.10
2022-12-09T06:44:47.962Z,0.20
2022-12-09T06:49:50.952Z,0.40
2022-12-09T06:54:55.626Z,0.40
2022-12-09T06:59:58.766Z,0.60
2022-12-09T07:05:01.944Z,0.60
2022-12-09T07:10:08.039Z,0.60
2022-12-09T07:15:12.783Z,0.60
2022-12-09T07:20:17.871Z,0.60
2022-12-09T07:25:22.703Z,0.70
2022-12-09T07:30:25.671Z,0.50
2022-12-09T07:35:29.040Z,0.60
2022-12-09T07:40:33.441Z,0.70
2022-12-09T07:45:36.580Z,0.80
2022-12-09T07:50:40.195Z,0.80
2022-12-09T07:55:44.533Z,0.90
2022-12-09T08:00:47.896Z,1.00
2022-12-09T08:05:51.868Z,1.00
2022-12-09T08:10:56.386Z,1.10
2022-12-09T08:16:03.427Z,1.10
2022-12-09T08:21:08.962Z,0.90
2022-12-09T08:26:14.578Z,1.00
2022-12-09T08:31:19.878Z,1.10
2022-12-09T08:36:25.488Z,1.20
2022-12-09T08:41:39.920Z,1.20
2022-12-09T08:46:45.500Z,1.10
2022-12-09T08:51:50.815Z,1.00
2022-12-09T08:56:57.065Z,0.90
2022-12-09T09:02:00.300Z,1.00
2022-12-09T09:07:03.808Z,1.10
2022-12-09T09:12:08.843Z,1.10
2022-12-09T09:17:11.888Z,1.10
2022-12-09T09:22:15.131Z,1.30
2022-12-09T09:27:19.768Z,1.50
2022-12-09T09:32:23.172Z,1.60
2022-12-09T09:37:26.526Z,1.60
2022-12-09T09:42:37.149Z,1.80
2022-12-09T09:47:46.266Z,1.80
2022-12-09T09:52:53.343Z,1.90
2022-12-09T09:58:05.337Z,2.00
2022-12-09T10:03:13.028Z,2.00
2022-12-09T10:08:30.256Z,2.10
2022-12-09T10:13:46.161Z,2.20
2022-12-09T10:19:07.981Z,2.30
2022-12-09T10:24:21.176Z,2.30
2022-12-09T10:29:41.502Z,2.20
2022-12-09T10:34:45.169Z,2.10
2022-12-09T10:39:49.116Z,2.10
2022-12-09T10:45:06.085Z,2.30
2022-12-09T10:50:20.213Z,2.50
2022-12-09T10:55:29.921Z,2.60
2022-12-09T11:00:35.150Z,2.60
2022-12-09T11:05:38.643Z,2.80
2022-12-09T11:10:50.405Z,2.90
2022-12-09T11:15:59.453Z,2.90
2022-12-09T11:21:05.081Z,2.90
2022-12-09T11:26:23.816Z,2.90
2022-12-09T11:31:30.437Z,3.10
2022-12-09T11:36:40.591Z,2.90
2022-12-09T11:42:10.115Z,3.00
2022-12-09T11:47:23.479Z,3.10
2022-12-09T11:52:29.907Z,3.10
2022-12-09T11:57:36.928Z,3.10
2022-12-09T12:02:45.676Z,3.40
2022-12-09T12:07:53.540Z,3.60
2022-12-09T12:13:03.431Z,3.70
2022-12-09T12:18:14.262Z,3.80
2022-12-09T12:23:30.982Z,3.80
2022-12-09T12:29:07.057Z,3.70
2022-12-09T12:34:26.733Z,3.60
2022-12-09T12:39:44.729Z,3.70
2022-12-09T12:45:12.484Z,3.70
2022-12-09T12:50:39.475Z,3.60
2022-12-09T12:55:50.286Z,3.80
2022-12-09T13:01:03.332Z,3.70
2022-12-09T13:06:14.293Z,3.60
2022-12-09T13:11:20.982Z,3.80
2022-12-09T13:16:28.429Z,3.90
2022-12-09T13:21:32.866Z,4.10
2022-12-09T13:26:45.542Z,4.20
2022-12-09T13:31:56.241Z,4.10
2022-12-09T13:37:00.526Z,4.00
2022-12-09T13:42:21.146Z,3.90
2022-12-09T13:47:28.311Z,3.90
2022-12-09T13:52:51.417Z,3.90
2022-12-09T13:58:03.020Z,4.00
2022-12-09T14:03:22.703Z,4.00
2022-12-09T14:08:31.992Z,4.40
2022-12-09T14:13:36.579Z,4.90
2022-12-09T14:18:40.216Z,4.70
2022-12-09T14:24:28.204Z,4.60
2022-12-09T14:29:54.370Z,4.40
2022-12-09T14:35:22.994Z,4.40
2022-12-09T14:41:00.691Z,4.50
2022-12-09T14:46:05.736Z,4.40
2022-12-09T14:51:16.699Z,4.60
2022-12-09T14:56:23.868Z,4.70
2022-12-09T15:01:27.187Z,4.60
2022-12-09T15:06:30.264Z,4.70
2022-12-09T15:11:37.502Z,4.70
2022-12-09T15:16:47.733Z,4.80
2022-12-09T15:21:54.076Z,4.90
2022-12-09T15:27:03.359Z,4.80
2022-12-09T15:32:21.006Z,4.70
2022-12-09T15:37:28.028Z,4.70
2022-12-09T15:42:37.779Z,4.80
2022-12-09T15:47:45.793Z,4.80
2022-12-09T15:52:55.402Z,4.70
2022-12-09T15:58:05.479Z,4.70
2022-12-09T16:03:09.226Z,4.90
2022-12-09T16:08:12.707Z,4.80
2022-12-09T16:13:21.377Z,4.90
2022-12-09T16:18:27.058Z,5.10
2022-12-09T16:23:30.062Z,4.90
2022-12-09T16:28:40.657Z,5.00
2022-12-09T16:33:49.127Z,4.80
2022-12-09T16:39:34.068Z,4.90
2022-12-09T16:44:40.515Z,4.90
2022-12-09T16:49:47.197Z,4.80
2022-12-09T16:54:51.604Z,4.80
2022-12-09T16:59:55.925Z,4.80
2022-12-09T17:05:00.508Z,4.70
2022-12-09T17:10:03.602Z,4.70
2022-12-09T17:15:09.096Z,4.80
2022-12-09T17:20:12.022Z,4.80
2022-12-09T17:25:23.543Z,4.50
2022-12-09T17:30:30.636Z,4.60
2022-12-09T17:35:38.615Z,4.50
2022-12-09T17:40:41.726Z,4.60
2022-12-09T17:45:46.177Z,4.60
2022-12-09T17:50:49.118Z,4.60
2022-12-09T17:56:07.583Z,4.50
2022-12-09T18:01:16.080Z,4.40
2022-12-09T18:06:35.102Z,4.50
2022-12-09T18:11:38.778Z,4.50
2022-12-09T18:16:43.335Z,4.60
2022-12-09T18:21:46.734Z,4.60
2022-12-09T18:26:49.700Z,4.60
2022-12-09T18:31:56.703Z,4.60
2022-12-09T18:37:02.835Z,4.50
2022-12-09T18:42:06.702Z,4.50
2022-12-09T18:47:12.143Z,4.50
2022-12-09T18:52:16.241Z,4.60
2022-12-09T18:57:31.020Z,4.60
2022-12-09T19:02:35.935Z,4.60
2022-12-09T19:07:47.673Z,4.60
2022-12-09T19:12:56.369Z,4.60
2022-12-09T19:18:01.265Z,4.60
2022-12-09T19:23:04.855Z,4.60
2022-12-09T19:28:08.812Z,4.50
2022-12-09T19:33:14.133Z,4.60
2022-12-09T19:38:17.120Z,4.50
2022-12-09T19:43:19.973Z,4.40
2022-12-09T19:48:24.273Z,4.40
2022-12-09T19:53:27.116Z,4.40
2022-12-09T19:58:33.820Z,4.40
2022-12-09T20:03:38.872Z,4.30
2022-12-09T20:08:41.922Z,4.40
2022-12-09T20:13:45.682Z,4.40
2022-12-09T20:18:50.266Z,4.30
2022-12-09T20:23:54.534Z,4.20
2022-12-09T20:28:59.042Z,4.00
2022-12-09T20:34:06.157Z,4.20
2022-12-09T20:39:14.863Z,4.10
2022-12-09T20:44:19.889Z,4.30
2022-12-09T20:49:26.609Z,4.40
2022-12-09T20:54:29.744Z,4.50
2022-12-09T20:59:32.765Z,4.40
2022-12-09T21:04:37.192Z,4.20
2022-12-09T21:09:40.099Z,4.10
2022-12-09T21:14:42.965Z,3.90
2022-12-09T21:19:47.273Z,4.20
2022-12-09T21:24:50.180Z,3.90
2022-12-09T21:29:53.038Z,4.00
2022-12-09T21:34:58.056Z,4.10
2022-12-09T21:40:01.953Z,4.10
2022-12-09T21:45:07.675Z,4.20
2022-12-09T21:50:13.003Z,4.40
2022-12-09T21:55:15.901Z,4.50
2022-12-09T22:00:19.249Z,4.50
2022-12-09T22:05:23.667Z,4.60
2022-12-09T22:10:26.780Z,4.60
2022-12-09T22:15:30.938Z,4.60
2022-12-09T22:25:58.804Z,4.50
2022-12-09T22:31:02.376Z,4.50
2022-12-09T22:36:08.281Z,4.50
2022-12-09T22:41:12.975Z,4.40
2022-12-09T22:46:17.830Z,4.50
2022-12-09T22:51:24.041Z,4.40
2022-12-09T22:56:27.666Z,4.00
2022-12-09T23:01:32.760Z,4.10
2022-12-09T23:06:38.976Z,4.30
2022-12-09T23:11:41.913Z,3.80
2022-12-09T23:16:45.687Z,3.70
2022-12-09T23:21:49.858Z,3.70
2022-12-09T23:26:52.924Z,3.70
2022-12-09T23:31:55.821Z,3.60
2022-12-09T23:37:00.045Z,3.50
2022-12-09T23:42:02.900Z,3.60
2022-12-09T23:47:05.801Z,3.70
2022-12-09T23:52:10.842Z,3.90
2022-12-09T23:57:13.713Z,3.90
